createdAt,value
2019-03-22T00:00:14.817Z,7.40
2019-03-22T00:02:43.252Z,7.38
2019-03-22T00:05:11.717Z,7.41
2019-03-22T00:07:40.155Z,7.47
2019-03-22T00:10:08.985Z,7.50
2019-03-22T00:12:37.404Z,7.55
2019-03-22T00:15:07.855Z,7.54
2019-03-22T00:17:36.274Z,7.56
2019-03-22T00:20:06.769Z,7.54
2019-03-22T00:22:35.199Z,7.55
2019-03-22T00:25:05.603Z,7.43
2019-03-22T00:27:34.107Z,7.40
2019-03-22T00:30:02.588Z,7.34
2019-03-22T00:32:31.006Z,7.16
2019-03-22T00:34:59.413Z,7.16
2019-03-22T00:37:27.850Z,7.16
2019-03-22T00:39:56.286Z,7.19
2019-03-22T00:42:24.691Z,7.14
2019-03-22T00:44:53.110Z,7.05
2019-03-22T00:47:21.518Z,7.08
2019-03-22T00:49:49.925Z,7.11
2019-03-22T00:52:18.350Z,7.12
2019-03-22T00:54:46.787Z,7.11
2019-03-22T00:57:15.209Z,7.09
2019-03-22T00:59:43.687Z,7.07
2019-03-22T01:02:12.109Z,7.07
2019-03-22T01:04:40.588Z,7.05
2019-03-22T01:07:09.087Z,6.98
2019-03-22T01:09:37.522Z,6.91
2019-03-22T01:12:06.014Z,6.86
2019-03-22T01:14:34.486Z,6.79
2019-03-22T01:17:03.050Z,6.69
2019-03-22T01:19:31.457Z,6.63
2019-03-22T01:21:59.867Z,6.50
2019-03-22T01:24:31.160Z,6.40
2019-03-22T01:26:59.616Z,6.43
2019-03-22T01:29:28.090Z,6.44
2019-03-22T01:31:56.511Z,6.43
2019-03-22T01:34:24.910Z,6.39
2019-03-22T01:36:53.597Z,6.37
2019-03-22T01:39:22.130Z,6.29
2019-03-22T01:41:50.586Z,6.17
2019-03-22T01:44:18.991Z,6.19
2019-03-22T01:46:47.403Z,6.17
2019-03-22T01:49:15.826Z,6.21
2019-03-22T01:51:44.229Z,6.20
2019-03-22T01:54:12.635Z,6.04
2019-03-22T01:56:41.087Z,6.10
2019-03-22T01:59:09.526Z,6.12
2019-03-22T02:01:37.920Z,6.07
2019-03-22T02:04:06.330Z,6.17
2019-03-22T02:06:34.746Z,6.18
2019-03-22T02:09:03.838Z,6.19
2019-03-22T02:11:32.259Z,6.25
2019-03-22T02:14:00.681Z,6.29
2019-03-22T02:16:29.092Z,6.31
2019-03-22T02:18:57.496Z,6.20
2019-03-22T02:21:25.914Z,6.18
2019-03-22T02:23:54.315Z,6.15
2019-03-22T02:26:22.713Z,6.05
2019-03-22T02:28:51.115Z,5.99
2019-03-22T02:34:07.429Z,6.11
2019-03-22T02:36:35.850Z,6.00
2019-03-22T02:39:06.204Z,5.86
2019-03-22T02:41:34.703Z,5.85
2019-03-22T02:44:03.162Z,5.82
2019-03-22T02:46:31.551Z,5.79
2019-03-22T02:48:59.964Z,5.83
2019-03-22T02:51:28.413Z,5.93
2019-03-22T02:53:56.796Z,5.77
2019-03-22T02:56:25.230Z,5.84
2019-03-22T02:58:53.615Z,5.85
2019-03-22T03:01:22.136Z,5.59
2019-03-22T03:03:50.535Z,5.53
2019-03-22T03:06:18.960Z,5.56
2019-03-22T03:08:47.346Z,5.62
2019-03-22T03:11:15.744Z,5.70
2019-03-22T03:13:44.190Z,5.71
2019-03-22T03:16:12.613Z,5.60
2019-03-22T03:18:41.010Z,5.45
2019-03-22T03:21:09.502Z,5.51
2019-03-22T03:23:37.983Z,5.44
2019-03-22T03:26:06.529Z,5.38
2019-03-22T03:28:37.233Z,5.35
2019-03-22T03:31:05.157Z,5.40
2019-03-22T03:33:35.644Z,5.41
2019-03-22T03:36:03.910Z,5.31
2019-03-22T03:38:32.405Z,5.36
2019-03-22T03:41:00.807Z,5.36
2019-03-22T03:43:29.227Z,5.32
2019-03-22T03:45:57.630Z,5.31
2019-03-22T03:48:26.060Z,5.38
2019-03-22T03:50:54.487Z,5.34
2019-03-22T03:53:22.929Z,5.34
2019-03-22T03:55:51.396Z,5.36
2019-03-22T03:58:19.830Z,5.30
2019-03-22T04:00:48.242Z,5.24
2019-03-22T04:03:16.646Z,5.22
2019-03-22T04:05:45.068Z,5.14
2019-03-22T04:08:13.472Z,5.09
2019-03-22T04:10:41.886Z,5.09
2019-03-22T04:13:10.281Z,5.21
2019-03-22T04:15:38.718Z,5.31
2019-03-22T04:18:07.119Z,5.29
2019-03-22T04:20:35.565Z,5.27
2019-03-22T04:23:04.033Z,5.26
2019-03-22T04:25:32.541Z,5.20
2019-03-22T04:28:00.977Z,5.28
2019-03-22T04:30:29.403Z,5.34
2019-03-22T04:32:57.849Z,5.39
2019-03-22T04:35:26.227Z,5.26
2019-03-22T04:37:54.619Z,5.19
2019-03-22T04:40:32.085Z,5.12
2019-03-22T04:43:00.511Z,5.13
2019-03-22T04:45:31.561Z,5.21
2019-03-22T04:48:08.798Z,5.22
2019-03-22T04:50:40.522Z,5.26
2019-03-22T04:53:11.978Z,5.27
2019-03-22T04:55:43.584Z,5.29
2019-03-22T04:58:14.437Z,5.28
2019-03-22T05:00:43.670Z,5.24
2019-03-22T05:03:13.435Z,5.25
2019-03-22T05:05:42.988Z,5.28
2019-03-22T05:08:11.534Z,5.28
2019-03-22T05:10:40.397Z,5.26
2019-03-22T05:13:11.515Z,5.25
2019-03-22T05:15:40.765Z,5.24
2019-03-22T05:18:09.525Z,5.16
2019-03-22T05:20:39.974Z,4.87
2019-03-22T05:23:09.617Z,4.69
2019-03-22T05:25:38.673Z,4.69
2019-03-22T05:28:09.534Z,4.64
2019-03-22T05:31:05.204Z,4.64
2019-03-22T05:33:33.591Z,4.66
2019-03-22T05:36:02.034Z,4.71
2019-03-22T05:38:30.449Z,4.78
2019-03-22T05:40:58.870Z,4.87
2019-03-22T05:43:27.430Z,4.95
2019-03-22T05:45:55.919Z,4.98
2019-03-22T05:48:24.333Z,5.01
2019-03-22T05:50:52.741Z,5.06
2019-03-22T05:53:21.232Z,5.11
2019-03-22T05:55:49.647Z,5.18
2019-03-22T05:58:18.260Z,5.22
2019-03-22T06:00:46.665Z,5.15
2019-03-22T06:03:15.163Z,5.03
2019-03-22T06:05:43.583Z,4.92
2019-03-22T06:08:12.091Z,4.80
2019-03-22T06:10:40.529Z,4.85
2019-03-22T06:13:08.937Z,4.79
2019-03-22T06:15:37.432Z,4.76
2019-03-22T06:18:05.873Z,4.73
2019-03-22T06:20:34.298Z,4.83
2019-03-22T06:23:02.690Z,4.94
2019-03-22T06:25:31.123Z,5.06
2019-03-22T06:27:59.524Z,5.09
2019-03-22T06:30:27.936Z,5.07
2019-03-22T06:32:56.376Z,5.05
2019-03-22T06:35:24.842Z,5.05
2019-03-22T06:37:53.270Z,5.07
2019-03-22T06:40:21.748Z,5.08
2019-03-22T06:42:50.153Z,5.07
2019-03-22T06:45:18.558Z,5.10
2019-03-22T06:47:46.990Z,5.10
2019-03-22T06:50:15.469Z,5.12
2019-03-22T06:52:43.914Z,5.13
2019-03-22T06:55:12.462Z,5.20
2019-03-22T06:57:40.950Z,5.27
2019-03-22T07:00:12.054Z,5.32
2019-03-22T07:02:40.431Z,5.37
2019-03-22T07:05:08.940Z,5.47
2019-03-22T07:07:37.347Z,5.54
2019-03-22T07:10:06.987Z,5.56
2019-03-22T07:12:35.483Z,5.59
2019-03-22T07:15:06.173Z,5.63
2019-03-22T07:17:34.670Z,5.64
2019-03-22T07:20:03.249Z,5.64
2019-03-22T07:22:31.677Z,5.64
2019-03-22T07:25:00.266Z,5.72
2019-03-22T07:27:28.789Z,5.76
2019-03-22T07:29:57.243Z,5.82
2019-03-22T07:32:25.658Z,5.87
2019-03-22T07:34:54.234Z,5.92
2019-03-22T07:37:22.657Z,5.99
2019-03-22T07:39:51.093Z,6.05
2019-03-22T07:42:19.508Z,6.08
2019-03-22T07:44:47.910Z,6.12
2019-03-22T07:47:16.366Z,6.16
2019-03-22T07:49:44.767Z,6.21
2019-03-22T07:52:13.201Z,6.24
2019-03-22T07:54:41.695Z,6.26
2019-03-22T07:57:10.135Z,6.30
2019-03-22T07:59:38.548Z,6.34
2019-03-22T08:02:08.000Z,6.39
2019-03-22T08:04:36.446Z,6.43
2019-03-22T08:07:04.907Z,6.47
2019-03-22T08:09:33.339Z,6.52
2019-03-22T08:12:02.174Z,6.57
2019-03-22T08:14:30.567Z,6.65
2019-03-22T08:16:58.991Z,6.73
2019-03-22T08:19:27.444Z,6.79
2019-03-22T08:21:55.817Z,6.86
2019-03-22T08:24:24.253Z,6.94
2019-03-22T08:26:52.664Z,7.08
2019-03-22T08:29:21.077Z,7.14
2019-03-22T08:31:49.569Z,7.24
2019-03-22T08:34:17.976Z,7.35
2019-03-22T08:36:46.410Z,7.49
2019-03-22T08:39:14.807Z,7.62
2019-03-22T08:41:43.232Z,7.73
2019-03-22T08:44:11.640Z,7.83
2019-03-22T08:46:40.041Z,7.91
2019-03-22T08:49:09.637Z,8.01
2019-03-22T08:51:38.200Z,8.02
2019-03-22T08:54:06.692Z,8.06
2019-03-22T08:56:36.235Z,8.21
2019-03-22T08:59:04.827Z,8.39
2019-03-22T09:01:33.231Z,8.52
2019-03-22T09:04:01.636Z,8.64
2019-03-22T09:06:30.183Z,8.62
2019-03-22T09:08:58.552Z,8.62
2019-03-22T09:11:27.013Z,8.86
2019-03-22T09:13:55.605Z,9.03
2019-03-22T09:16:24.102Z,9.05
2019-03-22T09:18:52.539Z,9.20
2019-03-22T09:21:20.926Z,9.29
2019-03-22T09:23:49.500Z,9.27
2019-03-22T09:26:19.988Z,9.32
2019-03-22T09:28:48.115Z,9.57
2019-03-22T09:31:16.576Z,9.52
2019-03-22T09:33:44.994Z,9.39
2019-03-22T09:36:13.539Z,9.46
2019-03-22T09:38:41.936Z,9.82
2019-03-22T09:41:12.538Z,10.21
2019-03-22T09:43:40.960Z,10.33
2019-03-22T09:46:09.443Z,10.17
2019-03-22T09:48:37.922Z,9.99
2019-03-22T09:51:06.290Z,10.12
2019-03-22T09:53:34.720Z,10.08
2019-03-22T09:56:03.251Z,10.05
2019-03-22T09:58:31.676Z,10.02
2019-03-22T10:01:00.195Z,10.16
2019-03-22T10:03:28.575Z,10.26
2019-03-22T10:05:57.009Z,10.28
2019-03-22T10:08:25.448Z,10.28
2019-03-22T10:10:53.902Z,10.40
2019-03-22T10:13:22.293Z,10.58
2019-03-22T10:15:50.814Z,10.89
2019-03-22T10:18:19.193Z,10.92
2019-03-22T10:20:47.650Z,10.97
2019-03-22T10:23:16.052Z,11.03
2019-03-22T10:25:44.588Z,10.99
2019-03-22T10:28:13.003Z,11.21
2019-03-22T10:30:41.429Z,11.37
2019-03-22T10:33:22.077Z,11.45
2019-03-22T10:35:40.067Z,11.48
2019-03-22T10:38:15.956Z,11.59
2019-03-22T10:40:38.662Z,11.61
2019-03-22T10:43:07.080Z,11.83
2019-03-22T10:45:35.553Z,12.00
2019-03-22T10:48:04.011Z,11.83
2019-03-22T10:50:32.459Z,11.90
2019-03-22T10:53:00.914Z,12.11
2019-03-22T10:55:30.702Z,12.01
2019-03-22T10:57:59.417Z,11.88
2019-03-22T11:00:28.223Z,12.15
2019-03-22T11:02:56.644Z,12.20
2019-03-22T11:05:25.093Z,12.57
2019-03-22T11:07:54.457Z,12.80
2019-03-22T11:10:22.859Z,12.82
2019-03-22T11:12:51.297Z,13.04
2019-03-22T11:15:19.705Z,13.02
2019-03-22T11:17:48.145Z,12.82
2019-03-22T11:20:17.269Z,13.00
2019-03-22T11:22:45.762Z,13.29
2019-03-22T11:25:14.293Z,13.13
2019-03-22T11:27:42.716Z,13.03
2019-03-22T11:30:14.456Z,12.92
2019-03-22T11:32:42.880Z,13.05
2019-03-22T11:35:12.326Z,12.85
2019-03-22T11:37:40.792Z,13.07
2019-03-22T11:40:11.665Z,13.27
2019-03-22T11:42:40.073Z,13.29
2019-03-22T11:45:17.429Z,13.38
2019-03-22T11:47:45.845Z,13.71
2019-03-22T11:50:14.509Z,13.73
2019-03-22T11:52:42.922Z,13.51
2019-03-22T11:55:13.275Z,13.81
2019-03-22T11:57:41.681Z,13.58
2019-03-22T12:00:16.228Z,13.74
2019-03-22T12:02:44.699Z,13.66
2019-03-22T12:05:13.979Z,13.44
2019-03-22T12:07:42.374Z,13.61
2019-03-22T12:10:13.335Z,13.83
2019-03-22T12:12:41.760Z,14.24
2019-03-22T12:15:12.725Z,14.38
2019-03-22T12:17:41.218Z,14.27
2019-03-22T12:20:15.966Z,14.42
2019-03-22T12:22:44.486Z,14.37
2019-03-22T12:25:16.098Z,14.45
2019-03-22T12:27:44.625Z,14.51
2019-03-22T12:30:17.501Z,14.39
2019-03-22T12:32:46.430Z,14.29
2019-03-22T12:35:16.868Z,14.44
2019-03-22T12:37:45.529Z,14.71
2019-03-22T12:40:22.355Z,14.48
2019-03-22T12:42:50.921Z,14.76
2019-03-22T12:45:29.940Z,15.46
2019-03-22T12:47:58.415Z,15.50
2019-03-22T12:50:27.386Z,15.73
2019-03-22T12:52:55.946Z,16.36
2019-03-22T12:55:24.503Z,16.78
2019-03-22T12:57:52.990Z,16.98
2019-03-22T13:00:27.436Z,17.23
2019-03-22T13:02:57.211Z,17.63
2019-03-22T13:05:25.763Z,17.92
2019-03-22T13:07:54.262Z,18.14
2019-03-22T13:10:27.680Z,18.45
2019-03-22T13:12:56.185Z,18.57
2019-03-22T13:15:24.694Z,18.77
2019-03-22T13:17:53.144Z,18.98
2019-03-22T13:20:21.717Z,19.15
2019-03-22T13:22:50.142Z,19.39
2019-03-22T13:25:21.020Z,19.65
2019-03-22T13:27:48.869Z,19.71
2019-03-22T13:30:35.362Z,19.78
2019-03-22T13:33:04.633Z,19.84
2019-03-22T13:35:33.065Z,19.92
2019-03-22T13:38:01.736Z,19.98
2019-03-22T13:40:30.233Z,20.03
2019-03-22T13:42:58.724Z,20.20
2019-03-22T13:45:27.198Z,20.06
2019-03-22T13:47:55.713Z,20.27
2019-03-22T13:50:24.666Z,20.50
2019-03-22T13:52:53.081Z,20.45
2019-03-22T13:55:21.578Z,20.45
2019-03-22T13:57:49.983Z,20.70
2019-03-22T14:00:19.169Z,20.63
2019-03-22T14:02:47.561Z,20.69
2019-03-22T14:05:16.033Z,20.82
2019-03-22T14:07:44.472Z,20.82
2019-03-22T14:10:21.810Z,20.81
2019-03-22T14:12:50.258Z,20.76
2019-03-22T14:15:18.643Z,20.82
2019-03-22T14:17:47.062Z,20.87
2019-03-22T14:20:15.481Z,21.02
2019-03-22T14:22:43.907Z,21.03
2019-03-22T14:25:12.382Z,21.00
2019-03-22T14:27:40.797Z,21.03
2019-03-22T14:30:09.773Z,20.95
2019-03-22T14:32:38.328Z,20.78
2019-03-22T14:35:09.503Z,20.76
2019-03-22T14:37:38.006Z,20.73
2019-03-22T14:40:07.038Z,20.60
2019-03-22T14:42:35.522Z,20.50
2019-03-22T14:45:11.315Z,20.54
2019-03-22T14:47:39.730Z,20.44
2019-03-22T14:50:08.502Z,20.23
2019-03-22T14:52:36.974Z,20.04
2019-03-22T14:55:06.825Z,19.89
2019-03-22T14:57:35.308Z,19.85
2019-03-22T15:00:08.419Z,19.79
2019-03-22T15:02:36.833Z,19.63
2019-03-22T15:05:06.710Z,19.52
2019-03-22T15:07:35.105Z,19.47
2019-03-22T15:10:04.780Z,19.42
2019-03-22T15:12:33.198Z,19.41
2019-03-22T15:15:21.449Z,19.41
2019-03-22T15:17:57.139Z,19.35
2019-03-22T15:20:30.220Z,19.32
2019-03-22T15:23:15.289Z,19.30
2019-03-22T15:25:45.365Z,19.24
2019-03-22T15:28:15.449Z,19.26
2019-03-22T15:30:45.535Z,19.27
2019-03-22T15:33:34.321Z,19.15
2019-03-22T15:35:59.628Z,19.13
2019-03-22T15:38:47.708Z,19.07
2019-03-22T15:41:16.356Z,19.08
2019-03-22T15:43:44.790Z,19.09
2019-03-22T15:46:13.265Z,19.12
2019-03-22T15:48:41.664Z,19.02
2019-03-22T15:51:10.096Z,18.98
2019-03-22T15:53:38.522Z,18.97
2019-03-22T15:56:06.948Z,18.96
2019-03-22T15:58:37.027Z,19.01
2019-03-22T16:01:05.581Z,18.96
2019-03-22T16:03:43.815Z,18.96
2019-03-22T16:06:04.197Z,18.93
2019-03-22T16:08:32.699Z,18.97
2019-03-22T16:11:01.108Z,18.88
2019-03-22T16:13:29.544Z,18.79
2019-03-22T16:15:58.040Z,18.87
2019-03-22T16:18:26.440Z,18.83
2019-03-22T16:20:59.957Z,18.79
2019-03-22T16:23:25.005Z,18.75
2019-03-22T16:25:53.427Z,18.70
2019-03-22T16:28:21.857Z,18.61
2019-03-22T16:30:50.262Z,18.53
2019-03-22T16:33:18.684Z,18.49
2019-03-22T16:35:47.118Z,18.49
2019-03-22T16:38:15.603Z,18.43
2019-03-22T16:40:44.101Z,18.38
2019-03-22T16:43:12.720Z,18.31
2019-03-22T16:45:42.659Z,18.29
2019-03-22T16:48:11.237Z,18.22
2019-03-22T16:50:39.825Z,18.12
2019-03-22T16:53:08.413Z,18.06
2019-03-22T16:55:36.924Z,17.92
2019-03-22T16:58:05.870Z,17.83
2019-03-22T17:00:34.949Z,17.76
2019-03-22T17:03:03.611Z,17.68
2019-03-22T17:05:32.039Z,17.61
2019-03-22T17:08:00.506Z,17.57
2019-03-22T17:10:29.004Z,17.49
2019-03-22T17:12:57.469Z,17.33
2019-03-22T17:15:25.921Z,17.17
2019-03-22T17:17:54.375Z,17.06
2019-03-22T17:20:22.828Z,16.95
2019-03-22T17:22:51.225Z,16.85
2019-03-22T17:25:19.651Z,16.74
2019-03-22T17:27:48.186Z,16.65
2019-03-22T17:30:18.272Z,16.54
2019-03-22T17:32:46.787Z,16.45
2019-03-22T17:35:15.333Z,16.37
2019-03-22T17:37:43.872Z,16.26
2019-03-22T17:40:12.249Z,16.14
2019-03-22T17:42:40.657Z,16.07
2019-03-22T17:45:15.640Z,15.98
2019-03-22T17:47:44.092Z,15.90
2019-03-22T17:50:13.972Z,15.84
2019-03-22T17:52:42.622Z,15.78
2019-03-22T17:55:12.099Z,15.72
2019-03-22T17:57:40.616Z,15.67
2019-03-22T18:00:12.071Z,15.60
2019-03-22T18:02:40.507Z,15.55
2019-03-22T18:05:09.738Z,15.48
2019-03-22T18:07:38.273Z,15.40
2019-03-22T18:10:11.062Z,15.31
2019-03-22T18:12:39.618Z,15.22
2019-03-22T18:15:09.979Z,15.14
2019-03-22T18:17:38.462Z,15.07
2019-03-22T18:20:09.930Z,15.00
2019-03-22T18:22:38.430Z,14.92
2019-03-22T18:25:09.143Z,14.87
2019-03-22T18:27:37.528Z,14.81
2019-03-22T18:30:08.287Z,14.74
2019-03-22T18:32:36.714Z,14.68
2019-03-22T18:35:05.783Z,14.63
2019-03-22T18:37:34.264Z,14.59
2019-03-22T18:40:02.659Z,14.56
2019-03-22T18:42:31.389Z,14.50
2019-03-22T18:44:59.861Z,14.43
2019-03-22T18:47:28.294Z,14.40
2019-03-22T18:49:56.715Z,14.33
2019-03-22T18:52:25.254Z,14.20
2019-03-22T18:54:53.663Z,14.02
2019-03-22T18:57:25.245Z,13.76
2019-03-22T18:59:53.649Z,13.69
2019-03-22T19:02:22.058Z,13.53
2019-03-22T19:04:50.459Z,13.44
2019-03-22T19:07:18.887Z,13.28
2019-03-22T19:09:47.312Z,13.22
2019-03-22T19:12:15.755Z,13.19
2019-03-22T19:14:44.467Z,13.16
2019-03-22T19:17:12.864Z,13.12
2019-03-22T19:19:41.292Z,12.97
2019-03-22T19:22:09.720Z,12.88
2019-03-22T19:24:38.130Z,12.77
2019-03-22T19:27:06.619Z,12.68
2019-03-22T19:29:35.129Z,12.52
2019-03-22T19:32:13.152Z,12.56
2019-03-22T19:34:33.849Z,12.47
2019-03-22T19:37:02.266Z,12.38
2019-03-22T19:39:30.786Z,12.26
2019-03-22T19:41:59.181Z,12.20
2019-03-22T19:44:27.720Z,12.10
2019-03-22T19:46:56.285Z,12.07
2019-03-22T19:49:24.703Z,11.97
2019-03-22T19:51:53.201Z,11.97
2019-03-22T19:54:21.614Z,11.91
2019-03-22T19:56:50.062Z,11.96
2019-03-22T19:59:18.537Z,11.87
2019-03-22T20:01:46.968Z,11.68
2019-03-22T20:04:15.379Z,11.65
2019-03-22T20:06:43.879Z,11.52
2019-03-22T20:09:12.406Z,11.51
2019-03-22T20:11:40.941Z,11.53
2019-03-22T20:14:09.417Z,11.68
2019-03-22T20:16:37.837Z,11.77
2019-03-22T20:19:06.254Z,11.78
2019-03-22T20:21:34.875Z,11.79
2019-03-22T20:24:03.285Z,11.78
2019-03-22T20:26:31.711Z,11.52
2019-03-22T20:29:00.142Z,11.31
2019-03-22T20:31:28.556Z,11.24
2019-03-22T20:33:57.036Z,11.25
2019-03-22T20:36:25.442Z,11.40
2019-03-22T20:38:53.853Z,11.48
2019-03-22T20:41:22.277Z,11.54
2019-03-22T20:43:50.700Z,11.60
2019-03-22T20:46:19.122Z,11.38
2019-03-22T20:48:47.550Z,11.20
2019-03-22T20:51:15.964Z,11.05
2019-03-22T20:53:44.473Z,10.99
2019-03-22T20:56:12.880Z,11.01
2019-03-22T20:58:41.299Z,10.92
2019-03-22T21:01:09.813Z,10.88
2019-03-22T21:03:38.222Z,10.82
2019-03-22T21:06:06.768Z,10.84
2019-03-22T21:08:35.268Z,10.88
2019-03-22T21:11:03.785Z,10.91
2019-03-22T21:13:32.155Z,10.98
2019-03-22T21:16:00.648Z,10.81
2019-03-22T21:18:29.060Z,10.76
2019-03-22T21:20:57.500Z,10.62
2019-03-22T21:23:35.759Z,10.53
2019-03-22T21:25:56.078Z,10.38
2019-03-22T21:28:24.518Z,10.35
2019-03-22T21:30:52.937Z,10.48
2019-03-22T21:33:21.347Z,10.37
2019-03-22T21:35:49.754Z,10.52
2019-03-22T21:38:18.150Z,10.33
2019-03-22T21:40:46.597Z,10.10
2019-03-22T21:43:14.997Z,9.92
2019-03-22T21:45:43.447Z,10.03
2019-03-22T21:48:11.837Z,9.99
2019-03-22T21:50:40.288Z,10.13
2019-03-22T21:53:08.702Z,10.05
2019-03-22T21:55:37.413Z,9.95
2019-03-22T21:58:05.809Z,9.94
2019-03-22T22:00:34.249Z,9.89
2019-03-22T22:03:02.674Z,9.93
2019-03-22T22:05:31.080Z,10.09
2019-03-22T22:07:59.522Z,10.06
2019-03-22T22:10:27.919Z,10.02
2019-03-22T22:12:56.372Z,9.85
2019-03-22T22:15:24.810Z,9.85
2019-03-22T22:17:53.185Z,9.80
2019-03-22T22:20:28.927Z,9.84
2019-03-22T22:22:51.828Z,9.87
2019-03-22T22:25:20.233Z,9.97
2019-03-22T22:27:48.644Z,9.93
2019-03-22T22:30:17.147Z,9.93
2019-03-22T22:32:45.569Z,10.05
2019-03-22T22:35:14.648Z,10.08
2019-03-22T22:37:43.141Z,10.02
2019-03-22T22:40:12.894Z,10.02
2019-03-22T22:42:41.373Z,10.02
2019-03-22T22:45:13.116Z,9.95
2019-03-22T22:47:41.560Z,9.79
2019-03-22T22:50:13.131Z,9.66
2019-03-22T22:52:41.536Z,9.52
2019-03-22T22:55:10.408Z,9.51
2019-03-22T22:57:38.824Z,9.52
2019-03-22T23:00:10.269Z,9.48
2019-03-22T23:02:38.689Z,9.37
2019-03-22T23:05:07.167Z,9.22
2019-03-22T23:07:35.700Z,9.10
2019-03-22T23:10:05.867Z,9.15
2019-03-22T23:12:34.456Z,9.18
2019-03-22T23:15:03.151Z,9.19
2019-03-22T23:17:31.535Z,9.33
2019-03-22T23:19:59.967Z,9.03
2019-03-22T23:22:28.383Z,9.16
2019-03-22T23:24:56.853Z,9.01
2019-03-22T23:27:25.342Z,8.92
2019-03-22T23:29:53.736Z,9.01
2019-03-22T23:32:22.174Z,8.90
2019-03-22T23:34:58.679Z,8.90
2019-03-22T23:37:20.732Z,9.02
2019-03-22T23:39:49.176Z,8.64
2019-03-22T23:42:17.572Z,8.66
2019-03-22T23:44:45.995Z,8.70
2019-03-22T23:47:14.474Z,8.71
2019-03-22T23:49:42.944Z,8.71
2019-03-22T23:52:11.355Z,8.58
2019-03-22T23:54:39.779Z,8.52
2019-03-22T23:57:08.266Z,8.48
2019-03-22T23:59:36.696Z,8.50
